sensor_id;sensor_type;location;lat;lon;timestamp;P1;durP1;ratioP1;P2;durP2;ratioP2
313;SDS011;143;51.634;7.112;2023-04-24T00:00:54;1.70;;;1.10;;
313;SDS011;143;51.634;7.112;2023-04-24T00:03:22;5.80;;;1.97;;
313;SDS011;143;51.634;7.112;2023-04-24T00:05:48;4.40;;;1.30;;
313;SDS011;143;51.634;7.112;2023-04-24T00:08:14;3.20;;;1.70;;
313;SDS011;143;51.634;7.112;2023-04-24T00:10:40;3.77;;;1.43;;
313;SDS011;143;51.634;7.112;2023-04-24T00:13:06;2.00;;;1.10;;
313;SDS011;143;51.634;7.112;2023-04-24T00:15:32;6.60;;;1.50;;
313;SDS011;143;51.634;7.112;2023-04-24T00:17:58;5.33;;;2.27;;
313;SDS011;143;51.634;7.112;2023-04-24T00:20:23;2.60;;;1.57;;
313;SDS011;143;51.634;7.112;2023-04-24T00:22:49;2.60;;;1.23;;
313;SDS011;143;51.634;7.112;2023-04-24T00:25:15;4.07;;;1.30;;
313;SDS011;143;51.634;7.112;2023-04-24T00:27:41;2.17;;;1.50;;
313;SDS011;143;51.634;7.112;2023-04-24T00:30:06;4.50;;;1.47;;
313;SDS011;143;51.634;7.112;2023-04-24T00:32:32;5.53;;;1.80;;
313;SDS011;143;51.634;7.112;2023-04-24T00:34:58;1.33;;;1.27;;
313;SDS011;143;51.634;7.112;2023-04-24T00:37:24;1.53;;;1.20;;
313;SDS011;143;51.634;7.112;2023-04-24T00:39:50;2.03;;;1.43;;
313;SDS011;143;51.634;7.112;2023-04-24T00:42:15;2.47;;;1.40;;
313;SDS011;143;51.634;7.112;2023-04-24T00:44:41;2.97;;;2.00;;
313;SDS011;143;51.634;7.112;2023-04-24T00:47:07;4.20;;;1.70;;
313;SDS011;143;51.634;7.112;2023-04-24T00:49:33;3.57;;;1.33;;
313;SDS011;143;51.634;7.112;2023-04-24T00:51:58;3.83;;;1.20;;
313;SDS011;143;51.634;7.112;2023-04-24T00:54:24;2.97;;;1.53;;
313;SDS011;143;51.634;7.112;2023-04-24T00:56:50;15.53;;;3.33;;
313;SDS011;143;51.634;7.112;2023-04-24T00:59:16;2.80;;;1.97;;
313;SDS011;143;51.634;7.112;2023-04-24T01:01:43;4.10;;;1.70;;
313;SDS011;143;51.634;7.112;2023-04-24T01:04:10;2.30;;;1.80;;
313;SDS011;143;51.634;7.112;2023-04-24T01:06:40;4.77;;;1.77;;
313;SDS011;143;51.634;7.112;2023-04-24T01:09:09;2.17;;;1.90;;
313;SDS011;143;51.634;7.112;2023-04-24T01:11:36;2.33;;;1.80;;
313;SDS011;143;51.634;7.112;2023-04-24T01:14:02;2.83;;;1.87;;
313;SDS011;143;51.634;7.112;2023-04-24T01:16:28;6.40;;;2.40;;
313;SDS011;143;51.634;7.112;2023-04-24T01:18:54;5.10;;;2.63;;
313;SDS011;143;51.634;7.112;2023-04-24T01:21:20;4.80;;;2.50;;
313;SDS011;143;51.634;7.112;2023-04-24T01:23:46;3.20;;;2.60;;
313;SDS011;143;51.634;7.112;2023-04-24T01:26:13;4.30;;;2.70;;
313;SDS011;143;51.634;7.112;2023-04-24T01:28:42;7.17;;;3.10;;
313;SDS011;143;51.634;7.112;2023-04-24T01:31:07;6.00;;;2.93;;
313;SDS011;143;51.634;7.112;2023-04-24T01:33:33;3.87;;;2.30;;
313;SDS011;143;51.634;7.112;2023-04-24T01:35:59;3.30;;;2.63;;
313;SDS011;143;51.634;7.112;2023-04-24T01:38:25;5.43;;;2.80;;
313;SDS011;143;51.634;7.112;2023-04-24T01:40:51;5.27;;;3.73;;
313;SDS011;143;51.634;7.112;2023-04-24T01:43:18;5.37;;;3.83;;
313;SDS011;143;51.634;7.112;2023-04-24T01:45:44;8.77;;;3.90;;
313;SDS011;143;51.634;7.112;2023-04-24T01:48:11;5.47;;;4.00;;
313;SDS011;143;51.634;7.112;2023-04-24T01:50:37;6.60;;;4.50;;
313;SDS011;143;51.634;7.112;2023-04-24T01:53:03;9.53;;;5.80;;
313;SDS011;143;51.634;7.112;2023-04-24T01:55:29;11.20;;;4.80;;
313;SDS011;143;51.634;7.112;2023-04-24T01:57:55;12.07;;;4.93;;
313;SDS011;143;51.634;7.112;2023-04-24T02:00:22;8.23;;;4.80;;
313;SDS011;143;51.634;7.112;2023-04-24T02:02:49;8.00;;;5.00;;
313;SDS011;143;51.634;7.112;2023-04-24T02:05:15;18.20;;;5.97;;
313;SDS011;143;51.634;7.112;2023-04-24T02:07:41;10.20;;;6.30;;
313;SDS011;143;51.634;7.112;2023-04-24T02:10:06;11.20;;;6.20;;
313;SDS011;143;51.634;7.112;2023-04-24T02:12:32;13.00;;;6.87;;
313;SDS011;143;51.634;7.112;2023-04-24T02:14:58;9.20;;;6.47;;
313;SDS011;143;51.634;7.112;2023-04-24T02:17:24;13.43;;;6.97;;
313;SDS011;143;51.634;7.112;2023-04-24T02:19:49;12.93;;;6.87;;
313;SDS011;143;51.634;7.112;2023-04-24T02:22:15;14.50;;;7.00;;
313;SDS011;143;51.634;7.112;2023-04-24T02:24:41;12.70;;;7.87;;
313;SDS011;143;51.634;7.112;2023-04-24T02:27:06;10.93;;;6.40;;
313;SDS011;143;51.634;7.112;2023-04-24T02:29:32;8.50;;;5.50;;
313;SDS011;143;51.634;7.112;2023-04-24T02:31:58;16.63;;;6.23;;
313;SDS011;143;51.634;7.112;2023-04-24T02:34:24;12.17;;;6.83;;
313;SDS011;143;51.634;7.112;2023-04-24T02:36:49;10.53;;;6.20;;
313;SDS011;143;51.634;7.112;2023-04-24T02:39:15;9.47;;;5.37;;
313;SDS011;143;51.634;7.112;2023-04-24T02:41:41;10.73;;;5.90;;
313;SDS011;143;51.634;7.112;2023-04-24T02:44:08;10.67;;;6.30;;
313;SDS011;143;51.634;7.112;2023-04-24T02:46:33;13.33;;;7.30;;
313;SDS011;143;51.634;7.112;2023-04-24T02:48:59;16.00;;;8.17;;
313;SDS011;143;51.634;7.112;2023-04-24T02:51:25;13.60;;;8.67;;
313;SDS011;143;51.634;7.112;2023-04-24T02:53:51;16.33;;;8.53;;
313;SDS011;143;51.634;7.112;2023-04-24T02:56:17;19.53;;;9.00;;
313;SDS011;143;51.634;7.112;2023-04-24T02:58:43;14.03;;;9.70;;
313;SDS011;143;51.634;7.112;2023-04-24T03:01:09;26.40;;;9.77;;
313;SDS011;143;51.634;7.112;2023-04-24T03:03:35;15.50;;;10.03;;
313;SDS011;143;51.634;7.112;2023-04-24T03:06:01;21.03;;;10.70;;
313;SDS011;143;51.634;7.112;2023-04-24T03:08:27;20.93;;;9.80;;
313;SDS011;143;51.634;7.112;2023-04-24T03:10:53;16.37;;;10.87;;
313;SDS011;143;51.634;7.112;2023-04-24T03:13:18;20.03;;;10.03;;
313;SDS011;143;51.634;7.112;2023-04-24T03:15:44;15.90;;;10.20;;
313;SDS011;143;51.634;7.112;2023-04-24T03:18:11;27.33;;;10.43;;
313;SDS011;143;51.634;7.112;2023-04-24T03:20:37;21.77;;;11.00;;
313;SDS011;143;51.634;7.112;2023-04-24T03:23:02;19.93;;;11.83;;
313;SDS011;143;51.634;7.112;2023-04-24T03:25:28;18.23;;;11.47;;
313;SDS011;143;51.634;7.112;2023-04-24T03:27:54;21.40;;;12.50;;
313;SDS011;143;51.634;7.112;2023-04-24T03:30:20;21.77;;;12.40;;
313;SDS011;143;51.634;7.112;2023-04-24T03:32:45;21.80;;;11.57;;
313;SDS011;143;51.634;7.112;2023-04-24T03:35:11;19.10;;;11.40;;
313;SDS011;143;51.634;7.112;2023-04-24T03:37:37;21.83;;;12.83;;
313;SDS011;143;51.634;7.112;2023-04-24T03:40:03;23.73;;;13.10;;
313;SDS011;143;51.634;7.112;2023-04-24T03:42:29;19.57;;;11.40;;
313;SDS011;143;51.634;7.112;2023-04-24T03:44:55;25.40;;;12.53;;
313;SDS011;143;51.634;7.112;2023-04-24T03:47:20;24.17;;;11.20;;
313;SDS011;143;51.634;7.112;2023-04-24T03:49:46;17.00;;;11.50;;
313;SDS011;143;51.634;7.112;2023-04-24T03:52:12;19.87;;;11.70;;
313;SDS011;143;51.634;7.112;2023-04-24T03:54:37;25.20;;;13.03;;
313;SDS011;143;51.634;7.112;2023-04-24T03:57:03;25.83;;;12.77;;
313;SDS011;143;51.634;7.112;2023-04-24T03:59:29;26.40;;;13.10;;
313;SDS011;143;51.634;7.112;2023-04-24T04:01:55;26.90;;;14.03;;
313;SDS011;143;51.634;7.112;2023-04-24T04:04:21;24.10;;;12.97;;
313;SDS011;143;51.634;7.112;2023-04-24T04:06:47;19.90;;;12.40;;
313;SDS011;143;51.634;7.112;2023-04-24T04:09:13;19.60;;;12.23;;
313;SDS011;143;51.634;7.112;2023-04-24T04:11:40;28.33;;;12.90;;
313;SDS011;143;51.634;7.112;2023-04-24T04:14:05;26.27;;;13.83;;
313;SDS011;143;51.634;7.112;2023-04-24T04:16:31;26.47;;;14.20;;
313;SDS011;143;51.634;7.112;2023-04-24T04:18:57;27.20;;;13.50;;
313;SDS011;143;51.634;7.112;2023-04-24T04:21:23;25.20;;;13.57;;
313;SDS011;143;51.634;7.112;2023-04-24T04:23:49;44.43;;;15.17;;
313;SDS011;143;51.634;7.112;2023-04-24T04:26:14;31.53;;;15.03;;
313;SDS011;143;51.634;7.112;2023-04-24T04:28:40;32.53;;;13.33;;
313;SDS011;143;51.634;7.112;2023-04-24T04:31:06;28.03;;;14.07;;
313;SDS011;143;51.634;7.112;2023-04-24T04:33:33;28.03;;;14.23;;
313;SDS011;143;51.634;7.112;2023-04-24T04:35:58;23.17;;;13.70;;
313;SDS011;143;51.634;7.112;2023-04-24T04:38:25;29.73;;;14.60;;
313;SDS011;143;51.634;7.112;2023-04-24T04:40:54;26.87;;;13.33;;
313;SDS011;143;51.634;7.112;2023-04-24T04:43:22;26.97;;;14.10;;
313;SDS011;143;51.634;7.112;2023-04-24T04:45:51;33.97;;;12.80;;
313;SDS011;143;51.634;7.112;2023-04-24T04:48:19;23.03;;;13.80;;
313;SDS011;143;51.634;7.112;2023-04-24T04:50:45;31.70;;;13.47;;
313;SDS011;143;51.634;7.112;2023-04-24T04:53:10;28.63;;;13.63;;
313;SDS011;143;51.634;7.112;2023-04-24T04:55:36;24.00;;;13.40;;
313;SDS011;143;51.634;7.112;2023-04-24T04:58:02;35.13;;;14.73;;
313;SDS011;143;51.634;7.112;2023-04-24T05:00:28;27.70;;;13.60;;
313;SDS011;143;51.634;7.112;2023-04-24T05:02:58;22.10;;;12.03;;
313;SDS011;143;51.634;7.112;2023-04-24T05:05:24;20.53;;;12.47;;
313;SDS011;143;51.634;7.112;2023-04-24T05:07:50;23.40;;;13.30;;
313;SDS011;143;51.634;7.112;2023-04-24T05:10:16;34.10;;;15.80;;
313;SDS011;143;51.634;7.112;2023-04-24T05:12:41;29.87;;;13.27;;
313;SDS011;143;51.634;7.112;2023-04-24T05:15:07;27.93;;;13.23;;
313;SDS011;143;51.634;7.112;2023-04-24T05:17:33;18.50;;;11.20;;
313;SDS011;143;51.634;7.112;2023-04-24T05:19:59;20.33;;;12.10;;
313;SDS011;143;51.634;7.112;2023-04-24T05:22:25;21.03;;;11.63;;
313;SDS011;143;51.634;7.112;2023-04-24T05:24:51;22.17;;;11.40;;
313;SDS011;143;51.634;7.112;2023-04-24T05:27:16;21.00;;;11.23;;
313;SDS011;143;51.634;7.112;2023-04-24T05:29:42;19.47;;;10.97;;
313;SDS011;143;51.634;7.112;2023-04-24T05:32:08;30.03;;;12.70;;
313;SDS011;143;51.634;7.112;2023-04-24T05:34:34;16.53;;;10.33;;
313;SDS011;143;51.634;7.112;2023-04-24T05:37:00;24.80;;;11.20;;
313;SDS011;143;51.634;7.112;2023-04-24T05:39:26;20.20;;;10.30;;
313;SDS011;143;51.634;7.112;2023-04-24T05:41:52;16.93;;;10.30;;
313;SDS011;143;51.634;7.112;2023-04-24T05:44:17;21.50;;;11.13;;
313;SDS011;143;51.634;7.112;2023-04-24T05:46:43;25.80;;;11.90;;
313;SDS011;143;51.634;7.112;2023-04-24T05:49:09;21.30;;;11.90;;
313;SDS011;143;51.634;7.112;2023-04-24T05:51:35;23.20;;;13.60;;
313;SDS011;143;51.634;7.112;2023-04-24T05:54:00;19.43;;;11.27;;
313;SDS011;143;51.634;7.112;2023-04-24T05:56:28;18.40;;;11.73;;
313;SDS011;143;51.634;7.112;2023-04-24T05:58:54;18.50;;;11.10;;
313;SDS011;143;51.634;7.112;2023-04-24T06:01:20;19.43;;;10.77;;
313;SDS011;143;51.634;7.112;2023-04-24T06:03:46;19.57;;;11.80;;
313;SDS011;143;51.634;7.112;2023-04-24T06:06:12;16.27;;;12.10;;
313;SDS011;143;51.634;7.112;2023-04-24T06:08:38;17.70;;;12.27;;
313;SDS011;143;51.634;7.112;2023-04-24T06:11:03;16.30;;;11.90;;
313;SDS011;143;51.634;7.112;2023-04-24T06:13:29;19.03;;;12.13;;
313;SDS011;143;51.634;7.112;2023-04-24T06:15:55;20.50;;;12.40;;
313;SDS011;143;51.634;7.112;2023-04-24T06:18:20;19.40;;;12.70;;
313;SDS011;143;51.634;7.112;2023-04-24T06:20:46;20.00;;;12.50;;
313;SDS011;143;51.634;7.112;2023-04-24T06:23:12;22.50;;;11.90;;
313;SDS011;143;51.634;7.112;2023-04-24T06:25:38;22.30;;;12.67;;
313;SDS011;143;51.634;7.112;2023-04-24T06:28:03;19.17;;;12.37;;
313;SDS011;143;51.634;7.112;2023-04-24T06:30:29;32.87;;;12.80;;
313;SDS011;143;51.634;7.112;2023-04-24T06:32:56;18.17;;;11.97;;
313;SDS011;143;51.634;7.112;2023-04-24T06:35:21;17.93;;;12.20;;
313;SDS011;143;51.634;7.112;2023-04-24T06:37:47;20.37;;;11.87;;
313;SDS011;143;51.634;7.112;2023-04-24T06:40:13;22.77;;;11.97;;
313;SDS011;143;51.634;7.112;2023-04-24T06:42:39;20.23;;;11.83;;
313;SDS011;143;51.634;7.112;2023-04-24T06:45:05;23.33;;;11.43;;
313;SDS011;143;51.634;7.112;2023-04-24T06:47:31;19.57;;;11.33;;
313;SDS011;143;51.634;7.112;2023-04-24T06:49:57;17.87;;;10.77;;
313;SDS011;143;51.634;7.112;2023-04-24T06:52:22;17.43;;;10.53;;
313;SDS011;143;51.634;7.112;2023-04-24T06:54:48;16.37;;;9.80;;
313;SDS011;143;51.634;7.112;2023-04-24T06:57:14;17.63;;;11.17;;
313;SDS011;143;51.634;7.112;2023-04-24T06:59:41;19.93;;;10.73;;
313;SDS011;143;51.634;7.112;2023-04-24T07:02:07;17.27;;;10.20;;
313;SDS011;143;51.634;7.112;2023-04-24T07:04:33;18.60;;;10.43;;
313;SDS011;143;51.634;7.112;2023-04-24T07:06:58;17.77;;;10.87;;
313;SDS011;143;51.634;7.112;2023-04-24T07:09:24;20.50;;;10.73;;
313;SDS011;143;51.634;7.112;2023-04-24T07:11:54;15.30;;;8.90;;
313;SDS011;143;51.634;7.112;2023-04-24T07:14:21;15.10;;;9.60;;
313;SDS011;143;51.634;7.112;2023-04-24T07:16:47;19.57;;;8.80;;
313;SDS011;143;51.634;7.112;2023-04-24T07:19:13;10.60;;;8.10;;
313;SDS011;143;51.634;7.112;2023-04-24T07:21:39;13.27;;;8.07;;
313;SDS011;143;51.634;7.112;2023-04-24T07:24:05;17.97;;;9.13;;
313;SDS011;143;51.634;7.112;2023-04-24T07:26:34;16.10;;;8.60;;
313;SDS011;143;51.634;7.112;2023-04-24T07:29:00;12.47;;;9.10;;
313;SDS011;143;51.634;7.112;2023-04-24T07:31:25;13.60;;;7.77;;
313;SDS011;143;51.634;7.112;2023-04-24T07:33:51;9.67;;;7.20;;
313;SDS011;143;51.634;7.112;2023-04-24T07:36:17;13.83;;;7.30;;
313;SDS011;143;51.634;7.112;2023-04-24T07:38:44;15.10;;;8.77;;
313;SDS011;143;51.634;7.112;2023-04-24T07:41:10;12.40;;;7.50;;
313;SDS011;143;51.634;7.112;2023-04-24T07:43:37;12.97;;;7.30;;
313;SDS011;143;51.634;7.112;2023-04-24T07:46:03;13.23;;;7.70;;
313;SDS011;143;51.634;7.112;2023-04-24T07:48:28;9.67;;;6.23;;
313;SDS011;143;51.634;7.112;2023-04-24T07:50:54;9.60;;;6.70;;
313;SDS011;143;51.634;7.112;2023-04-24T07:53:20;9.57;;;7.07;;
313;SDS011;143;51.634;7.112;2023-04-24T07:55:46;5.83;;;4.50;;
313;SDS011;143;51.634;7.112;2023-04-24T07:58:12;12.10;;;5.13;;
313;SDS011;143;51.634;7.112;2023-04-24T08:00:38;6.67;;;4.80;;
313;SDS011;143;51.634;7.112;2023-04-24T08:03:04;5.60;;;3.63;;
313;SDS011;143;51.634;7.112;2023-04-24T08:05:30;7.80;;;3.27;;
313;SDS011;143;51.634;7.112;2023-04-24T08:07:55;5.60;;;3.17;;
313;SDS011;143;51.634;7.112;2023-04-24T08:10:22;4.27;;;2.87;;
313;SDS011;143;51.634;7.112;2023-04-24T08:12:48;4.67;;;2.50;;
313;SDS011;143;51.634;7.112;2023-04-24T08:15:14;2.43;;;2.00;;
313;SDS011;143;51.634;7.112;2023-04-24T08:17:39;3.53;;;2.27;;
313;SDS011;143;51.634;7.112;2023-04-24T08:20:05;2.60;;;2.00;;
313;SDS011;143;51.634;7.112;2023-04-24T08:22:35;3.00;;;2.00;;
313;SDS011;143;51.634;7.112;2023-04-24T08:25:01;2.40;;;1.73;;
313;SDS011;143;51.634;7.112;2023-04-24T08:27:27;3.10;;;2.30;;
313;SDS011;143;51.634;7.112;2023-04-24T08:29:53;4.37;;;2.63;;
313;SDS011;143;51.634;7.112;2023-04-24T08:32:19;3.00;;;2.40;;
313;SDS011;143;51.634;7.112;2023-04-24T08:34:45;5.73;;;2.50;;
313;SDS011;143;51.634;7.112;2023-04-24T08:37:10;5.37;;;2.57;;
313;SDS011;143;51.634;7.112;2023-04-24T08:39:37;3.03;;;2.80;;
313;SDS011;143;51.634;7.112;2023-04-24T08:42:02;5.10;;;2.97;;
313;SDS011;143;51.634;7.112;2023-04-24T08:44:32;4.47;;;3.47;;
313;SDS011;143;51.634;7.112;2023-04-24T08:46:59;5.30;;;3.90;;
313;SDS011;143;51.634;7.112;2023-04-24T08:49:27;5.17;;;4.90;;
313;SDS011;143;51.634;7.112;2023-04-24T08:51:53;8.13;;;4.80;;
313;SDS011;143;51.634;7.112;2023-04-24T08:54:20;10.00;;;6.17;;
313;SDS011;143;51.634;7.112;2023-04-24T08:56:47;8.13;;;5.27;;
313;SDS011;143;51.634;7.112;2023-04-24T08:59:14;7.10;;;5.57;;
313;SDS011;143;51.634;7.112;2023-04-24T09:01:40;4.67;;;4.37;;
313;SDS011;143;51.634;7.112;2023-04-24T09:04:08;5.53;;;3.07;;
313;SDS011;143;51.634;7.112;2023-04-24T09:06:35;5.63;;;2.77;;
313;SDS011;143;51.634;7.112;2023-04-24T09:09:01;2.80;;;2.63;;
313;SDS011;143;51.634;7.112;2023-04-24T09:11:29;5.23;;;2.77;;
313;SDS011;143;51.634;7.112;2023-04-24T09:13:56;2.50;;;2.30;;
313;SDS011;143;51.634;7.112;2023-04-24T09:16:22;4.10;;;2.50;;
313;SDS011;143;51.634;7.112;2023-04-24T09:18:51;4.27;;;2.77;;
313;SDS011;143;51.634;7.112;2023-04-24T09:21:17;3.83;;;2.50;;
313;SDS011;143;51.634;7.112;2023-04-24T09:23:45;4.30;;;3.20;;
313;SDS011;143;51.634;7.112;2023-04-24T09:26:10;3.60;;;2.90;;
313;SDS011;143;51.634;7.112;2023-04-24T09:28:37;4.60;;;3.70;;
313;SDS011;143;51.634;7.112;2023-04-24T09:31:14;4.17;;;2.70;;
313;SDS011;143;51.634;7.112;2023-04-24T09:36:38;2.03;;;1.77;;
313;SDS011;143;51.634;7.112;2023-04-24T09:39:07;2.80;;;2.03;;
313;SDS011;143;51.634;7.112;2023-04-24T09:41:44;1.83;;;1.70;;
313;SDS011;143;51.634;7.112;2023-04-24T09:44:19;3.00;;;2.07;;
313;SDS011;143;51.634;7.112;2023-04-24T09:46:50;3.83;;;2.70;;
313;SDS011;143;51.634;7.112;2023-04-24T09:49:20;3.40;;;3.00;;
313;SDS011;143;51.634;7.112;2023-04-24T09:51:52;4.67;;;2.87;;
313;SDS011;143;51.634;7.112;2023-04-24T09:54:27;5.73;;;2.63;;
313;SDS011;143;51.634;7.112;2023-04-24T09:56:54;4.23;;;2.90;;
313;SDS011;143;51.634;7.112;2023-04-24T09:59:21;4.83;;;3.23;;
313;SDS011;143;51.634;7.112;2023-04-24T10:01:47;7.03;;;4.20;;
313;SDS011;143;51.634;7.112;2023-04-24T10:06:47;6.27;;;4.37;;
313;SDS011;143;51.634;7.112;2023-04-24T10:09:14;8.97;;;4.53;;
313;SDS011;143;51.634;7.112;2023-04-24T10:11:44;16.70;;;5.70;;
313;SDS011;143;51.634;7.112;2023-04-24T10:14:12;13.33;;;6.40;;
313;SDS011;143;51.634;7.112;2023-04-24T10:16:42;12.37;;;5.70;;
313;SDS011;143;51.634;7.112;2023-04-24T10:19:09;7.80;;;5.33;;
313;SDS011;143;51.634;7.112;2023-04-24T10:21:36;7.00;;;4.77;;
313;SDS011;143;51.634;7.112;2023-04-24T10:24:07;5.80;;;4.03;;
313;SDS011;143;51.634;7.112;2023-04-24T10:26:37;11.87;;;5.37;;
313;SDS011;143;51.634;7.112;2023-04-24T10:29:05;8.90;;;5.73;;
313;SDS011;143;51.634;7.112;2023-04-24T10:31:35;13.77;;;7.93;;
313;SDS011;143;51.634;7.112;2023-04-24T10:34:03;11.17;;;6.73;;
313;SDS011;143;51.634;7.112;2023-04-24T10:36:30;11.87;;;7.63;;
313;SDS011;143;51.634;7.112;2023-04-24T10:38:59;7.13;;;5.60;;
313;SDS011;143;51.634;7.112;2023-04-24T10:41:27;11.13;;;6.40;;
313;SDS011;143;51.634;7.112;2023-04-24T10:46:30;12.43;;;6.37;;
313;SDS011;143;51.634;7.112;2023-04-24T10:48:56;10.27;;;6.93;;
313;SDS011;143;51.634;7.112;2023-04-24T10:51:23;13.10;;;6.50;;
313;SDS011;143;51.634;7.112;2023-04-24T10:53:50;21.53;;;6.17;;
313;SDS011;143;51.634;7.112;2023-04-24T10:56:17;10.57;;;5.67;;
313;SDS011;143;51.634;7.112;2023-04-24T10:58:50;11.97;;;6.10;;
313;SDS011;143;51.634;7.112;2023-04-24T11:01:31;11.30;;;6.67;;
313;SDS011;143;51.634;7.112;2023-04-24T11:04:02;15.87;;;5.90;;
313;SDS011;143;51.634;7.112;2023-04-24T11:06:37;15.37;;;6.27;;
313;SDS011;143;51.634;7.112;2023-04-24T11:09:09;13.13;;;6.90;;
313;SDS011;143;51.634;7.112;2023-04-24T11:11:37;15.97;;;6.60;;
313;SDS011;143;51.634;7.112;2023-04-24T11:14:09;14.30;;;5.37;;
313;SDS011;143;51.634;7.112;2023-04-24T11:19:10;20.23;;;5.60;;
313;SDS011;143;51.634;7.112;2023-04-24T11:21:57;29.03;;;6.20;;
313;SDS011;143;51.634;7.112;2023-04-24T11:27:15;18.03;;;6.07;;
313;SDS011;143;51.634;7.112;2023-04-24T11:34:56;23.97;;;5.93;;
313;SDS011;143;51.634;7.112;2023-04-24T11:37:29;18.73;;;6.13;;
313;SDS011;143;51.634;7.112;2023-04-24T11:40:02;17.60;;;6.20;;
313;SDS011;143;51.634;7.112;2023-04-24T11:42:33;19.20;;;6.10;;
313;SDS011;143;51.634;7.112;2023-04-24T11:44:59;21.80;;;8.33;;
313;SDS011;143;51.634;7.112;2023-04-24T11:47:30;19.53;;;7.40;;
313;SDS011;143;51.634;7.112;2023-04-24T11:49:58;13.43;;;5.93;;
313;SDS011;143;51.634;7.112;2023-04-24T11:52:25;12.00;;;5.00;;
313;SDS011;143;51.634;7.112;2023-04-24T11:54:51;14.53;;;4.40;;
313;SDS011;143;51.634;7.112;2023-04-24T11:57:21;15.60;;;4.17;;
313;SDS011;143;51.634;7.112;2023-04-24T11:59:48;13.10;;;4.97;;
313;SDS011;143;51.634;7.112;2023-04-24T12:02:23;8.13;;;3.90;;
313;SDS011;143;51.634;7.112;2023-04-24T12:04:51;14.53;;;4.77;;
313;SDS011;143;51.634;7.112;2023-04-24T12:07:17;13.17;;;4.30;;
313;SDS011;143;51.634;7.112;2023-04-24T12:09:44;16.00;;;5.53;;
313;SDS011;143;51.634;7.112;2023-04-24T12:12:12;17.17;;;4.23;;
313;SDS011;143;51.634;7.112;2023-04-24T12:14:48;11.30;;;3.37;;
313;SDS011;143;51.634;7.112;2023-04-24T12:17:23;10.40;;;3.87;;
313;SDS011;143;51.634;7.112;2023-04-24T12:19:52;9.30;;;3.27;;
313;SDS011;143;51.634;7.112;2023-04-24T12:22:21;13.07;;;4.03;;
313;SDS011;143;51.634;7.112;2023-04-24T12:25:03;5.93;;;3.03;;
313;SDS011;143;51.634;7.112;2023-04-24T12:27:33;10.97;;;4.53;;
313;SDS011;143;51.634;7.112;2023-04-24T12:30:00;6.93;;;4.03;;
313;SDS011;143;51.634;7.112;2023-04-24T12:32:28;14.60;;;3.43;;
313;SDS011;143;51.634;7.112;2023-04-24T12:34:54;7.53;;;4.50;;
313;SDS011;143;51.634;7.112;2023-04-24T12:37:20;6.10;;;2.80;;
313;SDS011;143;51.634;7.112;2023-04-24T12:40:07;11.93;;;3.50;;
313;SDS011;143;51.634;7.112;2023-04-24T12:42:46;8.63;;;3.23;;
313;SDS011;143;51.634;7.112;2023-04-24T12:45:19;8.37;;;2.87;;
313;SDS011;143;51.634;7.112;2023-04-24T12:47:45;4.83;;;2.40;;
313;SDS011;143;51.634;7.112;2023-04-24T12:50:12;6.30;;;2.40;;
313;SDS011;143;51.634;7.112;2023-04-24T12:52:39;4.07;;;2.30;;
313;SDS011;143;51.634;7.112;2023-04-24T12:55:05;14.90;;;3.43;;
313;SDS011;143;51.634;7.112;2023-04-24T12:57:36;6.00;;;2.50;;
313;SDS011;143;51.634;7.112;2023-04-24T13:00:03;5.77;;;2.53;;
313;SDS011;143;51.634;7.112;2023-04-24T13:02:31;10.40;;;2.83;;
313;SDS011;143;51.634;7.112;2023-04-24T13:05:00;7.70;;;2.60;;
313;SDS011;143;51.634;7.112;2023-04-24T13:07:26;6.27;;;2.73;;
313;SDS011;143;51.634;7.112;2023-04-24T13:09:53;5.77;;;2.97;;
313;SDS011;143;51.634;7.112;2023-04-24T13:12:20;8.00;;;3.00;;
313;SDS011;143;51.634;7.112;2023-04-24T13:14:47;4.80;;;3.40;;
313;SDS011;143;51.634;7.112;2023-04-24T13:17:13;7.10;;;3.13;;
313;SDS011;143;51.634;7.112;2023-04-24T13:19:40;5.77;;;2.50;;
313;SDS011;143;51.634;7.112;2023-04-24T13:22:08;6.00;;;2.97;;
313;SDS011;143;51.634;7.112;2023-04-24T13:24:35;12.80;;;2.73;;
313;SDS011;143;51.634;7.112;2023-04-24T13:27:02;7.57;;;2.40;;
313;SDS011;143;51.634;7.112;2023-04-24T13:29:28;5.03;;;2.43;;
313;SDS011;143;51.634;7.112;2023-04-24T13:31:54;3.30;;;2.33;;
313;SDS011;143;51.634;7.112;2023-04-24T13:34:21;4.67;;;2.17;;
313;SDS011;143;51.634;7.112;2023-04-24T13:36:48;7.80;;;2.10;;
313;SDS011;143;51.634;7.112;2023-04-24T13:39:15;11.87;;;2.73;;
313;SDS011;143;51.634;7.112;2023-04-24T13:41:40;4.33;;;2.23;;
313;SDS011;143;51.634;7.112;2023-04-24T13:44:06;3.57;;;2.00;;
313;SDS011;143;51.634;7.112;2023-04-24T13:46:32;8.40;;;2.50;;
313;SDS011;143;51.634;7.112;2023-04-24T13:48:58;3.73;;;2.10;;
313;SDS011;143;51.634;7.112;2023-04-24T13:51:27;4.27;;;2.13;;
313;SDS011;143;51.634;7.112;2023-04-24T13:53:53;5.90;;;2.30;;
313;SDS011;143;51.634;7.112;2023-04-24T13:56:19;3.70;;;2.03;;
313;SDS011;143;51.634;7.112;2023-04-24T13:58:45;3.20;;;1.93;;
313;SDS011;143;51.634;7.112;2023-04-24T14:01:11;3.63;;;2.50;;
313;SDS011;143;51.634;7.112;2023-04-24T14:03:37;5.70;;;3.13;;
313;SDS011;143;51.634;7.112;2023-04-24T14:06:03;5.90;;;3.00;;
313;SDS011;143;51.634;7.112;2023-04-24T14:08:29;9.90;;;2.80;;
313;SDS011;143;51.634;7.112;2023-04-24T14:10:55;6.90;;;2.50;;
313;SDS011;143;51.634;7.112;2023-04-24T14:13:21;7.47;;;3.27;;
313;SDS011;143;51.634;7.112;2023-04-24T14:15:46;5.30;;;2.93;;
313;SDS011;143;51.634;7.112;2023-04-24T14:18:12;6.47;;;3.47;;
313;SDS011;143;51.634;7.112;2023-04-24T14:20:38;3.00;;;2.60;;
313;SDS011;143;51.634;7.112;2023-04-24T14:23:03;9.07;;;2.83;;
313;SDS011;143;51.634;7.112;2023-04-24T14:25:29;12.40;;;2.67;;
313;SDS011;143;51.634;7.112;2023-04-24T14:27:55;8.30;;;3.97;;
313;SDS011;143;51.634;7.112;2023-04-24T14:30:21;9.83;;;3.27;;
313;SDS011;143;51.634;7.112;2023-04-24T14:32:47;3.70;;;3.00;;
313;SDS011;143;51.634;7.112;2023-04-24T14:35:13;4.40;;;3.03;;
313;SDS011;143;51.634;7.112;2023-04-24T14:37:39;7.43;;;3.00;;
313;SDS011;143;51.634;7.112;2023-04-24T14:40:06;6.90;;;3.40;;
313;SDS011;143;51.634;7.112;2023-04-24T14:42:33;8.67;;;3.47;;
313;SDS011;143;51.634;7.112;2023-04-24T14:44:59;6.40;;;3.60;;
313;SDS011;143;51.634;7.112;2023-04-24T14:47:24;6.40;;;3.50;;
313;SDS011;143;51.634;7.112;2023-04-24T14:49:50;23.23;;;4.40;;
313;SDS011;143;51.634;7.112;2023-04-24T14:52:16;5.60;;;3.03;;
313;SDS011;143;51.634;7.112;2023-04-24T14:54:42;11.57;;;3.40;;
313;SDS011;143;51.634;7.112;2023-04-24T14:57:08;6.27;;;3.70;;
313;SDS011;143;51.634;7.112;2023-04-24T14:59:35;7.20;;;3.30;;
313;SDS011;143;51.634;7.112;2023-04-24T15:02:00;5.17;;;3.13;;
313;SDS011;143;51.634;7.112;2023-04-24T15:04:27;10.90;;;3.50;;
313;SDS011;143;51.634;7.112;2023-04-24T15:06:54;11.23;;;3.30;;
313;SDS011;143;51.634;7.112;2023-04-24T15:09:20;6.33;;;2.97;;
313;SDS011;143;51.634;7.112;2023-04-24T15:11:46;6.43;;;3.37;;
313;SDS011;143;51.634;7.112;2023-04-24T15:14:12;6.60;;;3.57;;
313;SDS011;143;51.634;7.112;2023-04-24T15:16:39;6.67;;;3.10;;
313;SDS011;143;51.634;7.112;2023-04-24T15:19:05;6.37;;;2.90;;
313;SDS011;143;51.634;7.112;2023-04-24T15:21:30;6.00;;;2.70;;
313;SDS011;143;51.634;7.112;2023-04-24T15:23:57;4.80;;;2.43;;
313;SDS011;143;51.634;7.112;2023-04-24T15:26:23;3.40;;;2.27;;
313;SDS011;143;51.634;7.112;2023-04-24T15:28:49;3.40;;;1.70;;
313;SDS011;143;51.634;7.112;2023-04-24T15:31:16;8.47;;;1.90;;
313;SDS011;143;51.634;7.112;2023-04-24T15:33:43;4.00;;;1.80;;
313;SDS011;143;51.634;7.112;2023-04-24T15:36:09;6.80;;;2.00;;
313;SDS011;143;51.634;7.112;2023-04-24T15:38:35;6.23;;;2.23;;
313;SDS011;143;51.634;7.112;2023-04-24T15:41:01;5.17;;;1.97;;
313;SDS011;143;51.634;7.112;2023-04-24T15:43:27;4.63;;;1.73;;
313;SDS011;143;51.634;7.112;2023-04-24T15:45:59;4.90;;;1.50;;
313;SDS011;143;51.634;7.112;2023-04-24T15:48:25;3.30;;;1.40;;
313;SDS011;143;51.634;7.112;2023-04-24T15:50:50;5.10;;;1.60;;